Time;durP1;ratioP1;P1;durP2;ratioP2;P2;SDS_P1;SDS_P2;PMS_P1;PMS_P2;Temp;Humidity;BMP_temperature;BMP_pressure;BME280_temperature;BME280_humidity;BME280_pressure;Samples;Min_cycle;Max_cycle;Signal;HPM_P1;HPM_P2
2022/01/06 00:00:00;;;;;;;;;17.33;16.67;;;;;4.05;100.00;101606.19;5038247;28;45416;-85
2022/01/06 00:02:25;;;;;;;;;13.00;13.00;;;;;4.04;100.00;101593.94;5020836;28;45331;-85
2022/01/06 00:04:51;;;;;;;;;21.33;15.33;;;;;4.01;100.00;101603.66;5039305;28;44634;-85
2022/01/06 00:07:16;;;;;;;;;18.33;13.33;;;;;3.99;100.00;101600.22;5039406;28;45247;-84
2022/01/06 00:09:43;;;;;;;;;14.00;12.67;;;;;4.00;100.00;101599.31;5042116;28;45188;-83
2022/01/06 00:12:12;;;;;;;;;24.67;16.33;;;;;3.98;100.00;101594.13;5047243;28;44639;-84
2022/01/06 00:15:07;;;;;;;;;19.33;16.67;;;;;3.98;100.00;101590.63;5046755;28;45170;-84
2022/01/06 00:25:16;;;;;;;;;17.33;16.67;;;;;3.89;100.00;101594.34;5041698;28;45371;-85
2022/01/06 00:27:42;;;;;;;;;21.33;17.00;;;;;3.86;100.00;101591.78;5041174;28;45416;-84
2022/01/06 00:30:08;;;;;;;;;15.33;13.33;;;;;3.82;100.00;101596.28;5050902;28;46557;-83
2022/01/06 00:32:34;;;;;;;;;20.00;17.33;;;;;3.79;100.00;101600.75;5058152;28;44830;-85
2022/01/06 00:34:59;;;;;;;;;22.00;17.33;;;;;3.74;100.00;101602.63;5055479;28;45377;-84
2022/01/06 00:37:24;;;;;;;;;19.67;17.00;;;;;3.72;100.00;101604.41;5041256;28;44923;-83
2022/01/06 00:39:50;;;;;;;;;25.00;18.67;;;;;3.67;100.00;101607.13;5057178;28;46601;-82
2022/01/06 00:42:16;;;;;;;;;29.67;23.00;;;;;3.67;100.00;101609.78;5046433;28;45246;-84
2022/01/06 00:44:42;;;;;;;;;23.00;20.67;;;;;3.67;100.00;101609.78;5042967;28;45242;-84
2022/01/06 00:47:07;;;;;;;;;36.33;21.67;;;;;3.70;100.00;101621.97;5041798;28;44812;-84
2022/01/06 00:49:34;;;;;;;;;27.33;20.33;;;;;3.68;100.00;101615.91;5043163;28;45038;-84
2022/01/06 00:52:00;;;;;;;;;20.67;20.67;;;;;3.66;100.00;101620.31;5036845;28;45417;-80
2022/01/06 00:54:25;;;;;;;;;24.00;21.67;;;;;3.67;100.00;101611.53;5037168;28;45284;-80
2022/01/06 00:56:51;;;;;;;;;17.00;13.00;;;;;3.70;100.00;101619.34;5037427;28;44820;-80
2022/01/06 00:59:16;;;;;;;;;21.00;17.33;;;;;3.69;100.00;101617.63;5037101;28;45098;-80
2022/01/06 01:01:41;;;;;;;;;18.33;18.33;;;;;3.70;100.00;101619.34;5037249;28;45425;-80
2022/01/06 01:04:07;;;;;;;;;25.00;17.67;;;;;3.71;100.00;101626.31;5037149;28;44773;-80
2022/01/06 01:06:32;;;;;;;;;20.33;17.67;;;;;3.67;100.00;101625.53;5036830;28;45281;-80
2022/01/06 01:08:57;;;;;;;;;24.67;22.33;;;;;3.65;100.00;101629.97;5036003;28;45678;-80
2022/01/06 01:11:23;;;;;;;;;15.67;12.67;;;;;3.62;100.00;101624.78;5019162;28;44903;-80
2022/01/06 01:14:07;;;;;;;;;19.00;18.00;;;;;3.61;100.00;101625.69;5021290;28;44739;-83
2022/01/06 01:16:33;;;;;;;;;23.00;20.67;;;;;3.61;100.00;101626.53;5028824;28;45272;-83
2022/01/06 01:19:00;;;;;;;;;17.33;16.33;;;;;3.60;100.00;101624.81;5044424;28;45068;-84
2022/01/06 01:21:27;;;;;;;;;24.33;14.33;;;;;3.56;100.00;101631.06;5037764;28;44843;-84
2022/01/06 01:23:58;;;;;;;;;19.67;18.67;;;;;3.56;100.00;101632.81;5038356;28;45352;-83
2022/01/06 01:26:24;;;;;;;;;20.00;16.67;;;;;3.50;100.00;101631.19;5037320;28;45379;-84
2022/01/06 01:28:51;;;;;;;;;21.00;18.33;;;;;3.51;100.00;101627.66;5037934;28;45059;-83
2022/01/06 01:31:25;;;;;;;;;24.67;18.00;;;;;3.53;100.00;101625.88;5018942;28;45560;-83
2022/01/06 01:33:52;;;;;;;;;27.67;21.33;;;;;3.50;100.00;101625.09;5037675;28;44737;-83
2022/01/06 01:36:19;;;;;;;;;20.67;17.33;;;;;3.51;100.00;101625.03;5037159;28;44846;-83
2022/01/06 01:38:44;;;;;;;;;22.67;18.67;;;;;3.46;100.00;101628.69;5036999;28;45207;-82
2022/01/06 01:41:10;;;;;;;;;24.00;20.33;;;;;3.40;100.00;101634.94;5038254;28;44715;-84
2022/01/06 01:43:38;;;;;;;;;22.00;14.67;;;;;3.36;100.00;101638.53;5038474;28;44813;-85
2022/01/06 01:46:13;;;;;;;;;21.67;20.00;;;;;3.34;100.00;101637.72;5039346;28;45544;-84
2022/01/06 01:48:42;;;;;;;;;26.67;16.33;;;;;3.30;100.00;101643.94;5044040;28;45198;-83
2022/01/06 01:51:08;;;;;;;;;25.67;16.33;;;;;3.25;100.00;101644.03;5037503;28;45355;-83
2022/01/06 01:53:38;;;;;;;;;23.00;19.33;;;;;3.24;100.00;101650.19;5037083;28;45275;-83
2022/01/06 01:56:08;;;;;;;;;18.00;14.67;;;;;3.21;100.00;101649.38;5036547;28;45269;-82
2022/01/06 01:58:35;;;;;;;;;22.00;17.00;;;;;3.18;100.00;101645.03;5035786;28;45223;-83
2022/01/06 02:01:02;;;;;;;;;23.67;21.00;;;;;3.14;100.00;101651.25;5036742;28;45497;-84
2022/01/06 02:03:27;;;;;;;;;19.67;17.33;;;;;3.12;100.00;101654.81;5036661;28;44830;-83
2022/01/06 02:05:52;;;;;;;;;29.00;20.00;;;;;3.08;100.00;101660.13;5036190;28;44860;-84
2022/01/06 02:08:18;;;;;;;;;20.00;18.67;;;;;3.06;100.00;101656.69;5036466;28;45062;-82
2022/01/06 02:10:44;;;;;;;;;24.67;17.33;;;;;3.03;100.00;101659.38;5036672;28;45158;-83
2022/01/06 02:13:09;;;;;;;;;25.33;22.00;;;;;3.00;100.00;101659.44;5037233;28;44807;-82
2022/01/06 02:15:35;;;;;;;;;18.33;16.67;;;;;2.99;100.00;101676.06;5019771;28;44885;-83
2022/01/06 02:18:00;;;;;;;;;25.67;20.33;;;;;2.98;100.00;101662.97;5039398;28;45188;-83
2022/01/06 02:20:26;;;;;;;;;22.00;21.33;;;;;2.95;100.00;101656.06;5046372;28;44813;-83
2022/01/06 02:22:52;;;;;;;;;17.67;16.00;;;;;2.93;100.00;101662.22;5049610;28;44844;-85
2022/01/06 02:25:27;;;;;;;;;25.00;18.00;;;;;2.93;100.00;101662.22;5037604;28;45198;-84
2022/01/06 02:27:54;;;;;;;;;17.33;13.00;;;;;2.91;100.00;101657.00;5037109;28;45238;-83
2022/01/06 02:30:21;;;;;;;;;23.67;21.33;;;;;2.90;100.00;101657.00;5018268;28;44859;-83
2022/01/06 02:32:47;;;;;;;;;19.33;16.00;;;;;2.86;100.00;101666.75;5037999;28;44804;-83
2022/01/06 02:35:15;;;;;;;;;24.33;15.33;;;;;2.84;100.00;101651.00;5035047;28;45424;-83
2022/01/06 02:37:42;;;;;;;;;18.67;16.33;;;;;2.82;100.00;101658.06;5036252;28;45153;-82
2022/01/06 02:40:14;;;;;;;;;16.33;16.00;;;;;2.76;100.00;101657.31;5036089;28;44826;-83
2022/01/06 02:42:42;;;;;;;;;24.00;19.67;;;;;2.70;100.00;101650.41;5035096;28;44746;-82
2022/01/06 02:45:09;;;;;;;;;23.00;22.33;;;;;2.67;100.00;101662.75;5035993;28;45337;-82
2022/01/06 02:47:34;;;;;;;;;28.00;24.00;;;;;2.61;100.00;101661.09;5035130;28;45427;-83
2022/01/06 02:49:59;;;;;;;;;11.67;9.33;;;;;2.58;100.00;101667.25;5035722;28;44859;-83
2022/01/06 02:52:25;;;;;;;;;29.00;23.33;;;;;2.53;100.00;101665.63;5036180;28;44865;-84
2022/01/06 02:54:51;;;;;;;;;27.00;22.00;;;;;2.53;100.00;101663.88;5021838;28;45378;-83
2022/01/06 02:57:17;;;;;;;;;35.33;26.00;;;;;2.51;100.00;101665.63;5041448;28;45121;-83
2022/01/06 02:59:42;;;;;;;;;26.00;21.67;;;;;2.47;100.00;101655.25;5022914;28;44763;-84
2022/01/06 03:02:08;;;;;;;;;25.67;20.67;;;;;2.46;100.00;101669.25;5022580;28;45094;-84
2022/01/06 03:04:35;;;;;;;;;22.00;20.00;;;;;2.45;100.00;101675.38;5040445;28;44822;-83
2022/01/06 03:07:01;;;;;;;;;26.33;21.00;;;;;2.41;100.00;101678.94;5040185;28;45222;-82
2022/01/06 03:09:38;;;;;;;;;22.67;22.67;;;;;2.40;100.00;101691.19;5040809;28;45164;-83
2022/01/06 03:12:06;;;;;;;;;26.33;21.67;;;;;2.40;100.00;101687.72;5040072;28;44680;-84
2022/01/06 03:14:32;;;;;;;;;20.33;18.67;;;;;2.41;100.00;101686.81;5041215;28;45324;-83
2022/01/06 03:16:58;;;;;;;;;20.67;18.00;;;;;2.42;100.00;101696.41;5041625;28;45174;-83
2022/01/06 03:19:26;;;;;;;;;15.67;12.67;;;;;2.44;100.00;101695.50;5041703;28;44873;-83
2022/01/06 03:21:51;;;;;;;;;23.00;21.67;;;;;2.49;100.00;101698.91;5044435;28;45283;-83
2022/01/06 03:24:17;;;;;;;;;20.00;20.00;;;;;2.51;100.00;101702.34;5044611;28;44703;-84
2022/01/06 03:26:42;;;;;;;;;24.33;20.33;;;;;2.58;100.00;101695.25;5034769;28;45326;-83
2022/01/06 03:29:08;;;;;;;;;19.67;19.33;;;;;2.63;100.00;101690.78;5048768;28;44655;-83
2022/01/06 03:31:35;;;;;;;;;26.67;21.33;;;;;2.66;100.00;101692.47;5047189;28;44720;-83
2022/01/06 03:34:00;;;;;;;;;21.67;20.67;;;;;2.68;100.00;101702.06;5045835;28;44815;-83
2022/01/06 03:36:25;;;;;;;;;21.67;17.33;;;;;2.72;100.00;101702.88;5041283;28;45176;-84
2022/01/06 03:38:51;;;;;;;;;18.33;18.00;;;;;2.70;100.00;101702.88;5041046;28;45387;-82
2022/01/06 03:41:16;;;;;;;;;24.00;20.67;;;;;2.71;100.00;101706.41;5022146;28;44780;-83
2022/01/06 03:43:42;;;;;;;;;24.67;18.33;;;;;2.71;100.00;101704.63;5039918;28;44840;-82
2022/01/06 03:46:07;;;;;;;;;16.33;16.33;;;;;2.69;100.00;101706.41;5038328;28;45614;-84
2022/01/06 03:48:32;;;;;;;;;25.33;17.00;;;;;2.70;100.00;101705.50;5038212;28;45293;-83
2022/01/06 03:50:58;;;;;;;;;28.67;23.00;;;;;2.71;100.00;101702.00;5038553;28;45264;-84
2022/01/06 03:53:23;;;;;;;;;27.33;21.00;;;;;2.73;100.00;101697.59;5039089;28;45360;-84
2022/01/06 03:55:49;;;;;;;;;22.67;21.00;;;;;2.75;100.00;101703.66;5020533;28;44949;-83
2022/01/06 03:58:14;;;;;;;;;23.67;17.00;;;;;2.70;100.00;101705.50;5038679;28;44749;-84
2022/01/06 04:00:39;;;;;;;;;25.67;18.67;;;;;2.72;100.00;101711.59;5039698;28;45162;-83
2022/01/06 04:03:05;;;;;;;;;17.67;14.33;;;;;2.72;100.00;101702.88;5041513;28;44855;-83
2022/01/06 04:05:33;;;;;;;;;19.67;18.67;;;;;2.70;100.00;101707.25;5043925;28;45101;-84
2022/01/06 04:08:00;;;;;;;;;32.00;25.67;;;;;2.68;100.00;101704.69;5038984;28;44873;-85
2022/01/06 04:10:25;;;;;;;;;17.00;17.00;;;;;2.68;100.00;101706.44;5038956;28;44866;-84
2022/01/06 04:12:51;;;;;;;;;19.33;17.00;;;;;2.69;100.00;101716.03;5040478;28;44996;-83
2022/01/06 04:15:16;;;;;;;;;28.00;19.67;;;;;2.68;100.00;101711.69;5038670;28;45471;-83
2022/01/06 04:17:43;;;;;;;;;20.33;16.00;;;;;2.66;100.00;101710.84;5039620;28;44885;-83
2022/01/06 04:20:10;;;;;;;;;24.00;21.67;;;;;2.64;100.00;101713.50;5021118;28;44844;-85
2022/01/06 04:22:36;;;;;;;;;31.67;22.33;;;;;2.67;100.00;101713.44;5037932;28;44933;-84
2022/01/06 04:25:02;;;;;;;;;21.67;18.00;;;;;2.69;100.00;101706.41;5041918;28;45388;-83
2022/01/06 04:27:27;;;;;;;;;19.00;17.00;;;;;2.73;100.00;101709.84;5045151;28;45310;-83
2022/01/06 04:29:53;;;;;;;;;28.00;23.67;;;;;2.74;100.00;101704.56;5044803;28;45139;-83
2022/01/06 04:32:18;;;;;;;;;16.33;10.00;;;;;2.75;100.00;101708.03;5036275;28;44846;-80
2022/01/06 04:34:43;;;;;;;;;17.67;13.67;;;;;2.76;100.00;101702.78;5037406;28;45026;-80
2022/01/06 04:37:09;;;;;;;;;18.00;18.00;;;;;2.81;100.00;101706.19;5037574;28;44989;-81
2022/01/06 04:39:34;;;;;;;;;26.00;19.00;;;;;2.79;100.00;101705.34;5044092;28;45430;-80
2022/01/06 04:42:00;;;;;;;;;19.67;17.00;;;;;2.77;100.00;101711.53;5041469;28;44798;-80
2022/01/06 04:44:25;;;;;;;;;22.67;20.33;;;;;2.80;100.00;101719.31;5019150;28;46500;-80
2022/01/06 04:46:50;;;;;;;;;22.00;17.00;;;;;2.80;100.00;101714.06;5037334;28;44850;-80
2022/01/06 04:49:16;;;;;;;;;30.00;19.67;;;;;2.79;100.00;101715.81;5019686;28;45109;-80
2022/01/06 04:51:43;;;;;;;;;10.33;9.33;;;;;2.77;100.00;101714.13;5037243;28;45348;-80
2022/01/06 04:54:09;;;;;;;;;23.00;17.00;;;;;2.76;100.00;101712.41;5017216;28;45226;-80
2022/01/06 04:56:37;;;;;;;;;20.33;18.67;;;;;2.77;100.00;101711.53;5017137;28;45244;-80
2022/01/06 04:59:04;;;;;;;;;22.00;18.00;;;;;2.75;100.00;101710.66;5017106;28;44692;-81
2022/01/06 05:01:30;;;;;;;;;18.00;14.33;;;;;2.72;100.00;101721.22;5017504;28;44883;-81
2022/01/06 05:03:55;;;;;;;;;20.33;17.00;;;;;2.68;100.00;101715.16;5017137;28;45180;-80
2022/01/06 05:06:21;;;;;;;;;18.67;17.00;;;;;2.64;100.00;101723.97;5017376;28;45425;-80
2022/01/06 05:08:47;;;;;;;;;24.33;17.33;;;;;2.63;100.00;101729.28;5016979;28;45317;-80
2022/01/06 05:11:13;;;;;;;;;17.00;16.67;;;;;2.58;100.00;101727.59;5017458;28;44747;-80
2022/01/06 05:13:38;;;;;;;;;27.00;18.67;;;;;2.57;100.00;101738.97;5020361;28;45316;-80
2022/01/06 05:16:04;;;;;;;;;22.00;15.33;;;;;2.57;100.00;101731.13;5024388;28;44745;-80
2022/01/06 05:18:29;;;;;;;;;22.33;21.33;;;;;2.60;100.00;101740.66;5017471;28;45374;-81
2022/01/06 05:20:55;;;;;;;;;20.33;17.33;;;;;2.62;100.00;101740.66;5021017;28;44979;-81
2022/01/06 05:23:20;;;;;;;;;21.67;18.67;;;;;2.64;100.00;101744.09;5036621;28;45481;-80
2022/01/06 05:25:46;;;;;;;;;17.67;15.67;;;;;2.63;100.00;101740.63;5036777;28;45301;-80
2022/01/06 05:28:11;;;;;;;;;9.33;9.00;;;;;2.65;100.00;101740.59;5037547;28;44693;-79
2022/01/06 05:30:37;;;;;;;;;22.00;15.33;;;;;2.66;100.00;101744.94;5038615;28;44823;-81
2022/01/06 05:33:02;;;;;;;;;23.67;18.00;;;;;2.68;100.00;101743.16;5018645;28;45608;-81
2022/01/06 05:35:28;;;;;;;;;21.00;17.00;;;;;2.67;100.00;101742.31;5037160;28;44833;-81
2022/01/06 05:37:53;;;;;;;;;19.67;17.00;;;;;2.67;100.00;101744.06;5037323;28;45288;-80
2022/01/06 05:40:18;;;;;;;;;22.00;19.67;;;;;2.63;100.00;101740.63;5036788;28;44835;-81
2022/01/06 05:42:44;;;;;;;;;27.00;18.00;;;;;2.61;100.00;101741.53;5036039;28;45327;-81
2022/01/06 05:45:11;;;;;;;;;14.67;11.67;;;;;2.60;100.00;101742.44;5035899;28;44815;-80
2022/01/06 05:47:36;;;;;;;;;24.33;22.00;;;;;2.60;100.00;101748.53;5036533;28;45308;-81
2022/01/06 05:50:05;;;;;;;;;23.33;21.00;;;;;2.60;100.00;101756.41;5042602;28;45448;-80
2022/01/06 05:52:31;;;;;;;;;13.33;12.00;;;;;2.60;100.00;101755.53;5040507;28;45167;-80
2022/01/06 05:54:56;;;;;;;;;24.00;17.00;;;;;2.60;100.00;101756.41;5036573;28;44858;-80
2022/01/06 05:57:21;;;;;;;;;25.67;20.33;;;;;2.63;100.00;101763.38;5037842;28;45465;-80
2022/01/06 05:59:47;;;;;;;;;23.00;22.00;;;;;2.65;100.00;101764.19;5036589;28;45508;-82
2022/01/06 06:02:12;;;;;;;;;21.67;18.67;;;;;2.64;100.00;101759.84;5018048;28;45235;-81
2022/01/06 06:04:38;;;;;;;;;20.67;17.00;;;;;2.64;100.00;101760.72;5036518;28;45574;-82
2022/01/06 06:07:04;;;;;;;;;32.67;19.33;;;;;2.63;100.00;101766.84;5035106;28;45168;-81
2022/01/06 06:09:29;;;;;;;;;20.67;16.00;;;;;2.62;100.00;101765.13;5036517;28;45367;-82
2022/01/06 06:11:54;;;;;;;;;12.33;12.33;;;;;2.62;100.00;101765.13;5035664;28;46273;-80
2022/01/06 06:14:20;;;;;;;;;21.67;20.67;;;;;2.63;100.00;101771.25;5018019;28;45455;-81
2022/01/06 06:16:45;;;;;;;;;25.67;22.00;;;;;2.62;100.00;101775.63;5036107;28;45534;-80
2022/01/06 06:19:10;;;;;;;;;26.67;22.33;;;;;2.63;100.00;101779.09;5018200;28;44794;-81
2022/01/06 06:21:36;;;;;;;;;28.67;24.00;;;;;2.64;100.00;101780.84;5036117;28;45455;-82
2022/01/06 06:24:02;;;;;;;;;29.67;22.00;;;;;2.67;100.00;101779.03;5017797;28;45468;-82
2022/01/06 06:26:27;;;;;;;;;22.67;17.33;;;;;2.68;100.00;101793.00;5039160;28;45411;-81
2022/01/06 06:28:52;;;;;;;;;19.67;12.67;;;;;2.76;100.00;101794.63;5046534;28;44904;-87
2022/01/06 06:31:18;;;;;;;;;18.00;17.33;;;;;2.91;100.00;101792.63;5043679;28;45884;-82
2022/01/06 06:33:44;;;;;;;;;28.33;22.33;;;;;2.92;100.00;101786.47;5022344;28;44749;-85
2022/01/06 06:36:09;;;;;;;;;21.00;17.67;;;;;2.95;100.00;101791.63;5043504;28;45321;-90
2022/01/06 06:38:35;;;;;;;;;26.00;22.00;;;;;2.95;100.00;101796.88;5030169;28;44806;-88
2022/01/06 06:41:00;;;;;;;;;28.33;22.33;;;;;2.95;100.00;101808.28;5028904;28;46589;-90
2022/01/06 06:43:26;;;;;;;;;31.33;23.00;;;;;2.96;100.00;101799.50;5028216;28;44598;-88
2022/01/06 06:45:51;;;;;;;;;32.00;20.67;;;;;3.00;100.00;101810.81;5023579;28;44748;-89
2022/01/06 06:48:16;;;;;;;;;24.33;21.00;;;;;2.99;100.00;101801.19;5040984;28;45218;-89
2022/01/06 06:50:42;;;;;;;;;22.00;20.33;;;;;3.06;100.00;101813.31;5019517;28;45266;-89
2022/01/06 06:53:07;;;;;;;;;31.67;23.33;;;;;3.09;100.00;101805.38;5020311;28;44780;-89
2022/01/06 06:55:33;;;;;;;;;28.33;22.33;;;;;3.12;100.00;101804.47;5023247;28;44808;-87
2022/01/06 06:57:58;;;;;;;;;24.67;18.33;;;;;3.15;100.00;101802.66;5040559;28;44841;-87
2022/01/06 07:00:24;;;;;;;;;22.33;21.67;;;;;3.18;100.00;101805.19;5008016;28;45196;-89
2022/01/06 07:02:49;;;;;;;;;16.33;16.33;;;;;3.20;100.00;101803.44;5047284;28;44769;-89
2022/01/06 07:05:17;;;;;;;;;22.67;20.67;;;;;3.25;100.00;101805.97;5031027;28;45329;-88
2022/01/06 07:07:43;;;;;;;;;25.33;20.00;;;;;3.29;100.00;101811.13;5047627;28;44743;-87
2022/01/06 07:10:09;;;;;;;;;11.00;10.67;;;;;3.35;100.00;101812.75;5040601;28;45480;-89
2022/01/06 07:12:43;;;;;;;;;19.00;19.00;;;;;3.38;100.00;101811.81;5041375;28;45074;-89
2022/01/06 07:15:10;;;;;;;;;23.67;20.33;;;;;3.44;100.00;101815.22;5022460;28;45310;-90
2022/01/06 07:17:36;;;;;;;;;27.00;23.00;;;;;3.47;100.00;101809.00;5040555;28;45415;-89
2022/01/06 07:20:01;;;;;;;;;22.33;20.00;;;;;3.43;100.00;101816.09;5041405;28;45056;-88
2022/01/06 07:22:27;;;;;;;;;18.33;14.00;;;;;3.46;100.00;101821.28;5039891;28;44784;-88
2022/01/06 07:24:52;;;;;;;;;23.33;21.67;;;;;3.43;100.00;101809.97;5040775;28;45320;-88
2022/01/06 07:27:18;;;;;;;;;19.67;19.67;;;;;3.45;100.00;101806.44;5022302;28;45037;-88
2022/01/06 07:29:43;;;;;;;;;20.67;19.00;;;;;3.49;100.00;101807.25;5043802;28;45568;-90
2022/01/06 07:32:09;;;;;;;;;20.33;18.67;;;;;3.50;100.00;101803.72;5024802;28;44775;-89
2022/01/06 07:34:35;;;;;;;;;24.33;23.33;;;;;3.51;100.00;101810.69;5045412;28;44812;-87
2022/01/06 07:37:00;;;;;;;;;30.33;25.33;;;;;3.51;100.00;101822.06;5047926;28;44784;-89
2022/01/06 07:39:27;;;;;;;;;21.33;18.33;;;;;3.47;100.00;101823.00;5048930;28;45348;-90
2022/01/06 07:41:52;;;;;;;;;27.00;23.00;;;;;3.44;100.00;101820.47;5039168;28;44743;-90
2022/01/06 07:44:18;;;;;;;;;27.00;22.00;;;;;3.48;100.00;101824.78;5053623;28;44866;-90
2022/01/06 07:46:45;;;;;;;;;22.33;18.33;;;;;3.50;100.00;101817.69;5053901;28;44867;-89
2022/01/06 07:49:11;;;;;;;;;37.00;31.67;;;;;3.52;100.00;101822.91;5032314;28;45290;-89
2022/01/06 07:51:36;;;;;;;;;24.00;20.67;;;;;3.53;100.00;101828.16;5057171;28;44715;-88
2022/01/06 07:54:02;;;;;;;;;30.67;22.67;;;;;3.55;100.00;101834.25;5059973;28;45428;-87
2022/01/06 07:56:28;;;;;;;;;20.00;16.00;;;;;3.55;100.00;101841.25;5056762;28;44776;-91
2022/01/06 07:58:54;;;;;;;;;24.67;22.00;;;;;3.59;100.00;101842.94;5040784;28;45236;-87
2022/01/06 08:01:20;;;;;;;;;26.00;21.33;;;;;3.60;100.00;101840.25;5022192;28;45361;-88
2022/01/06 08:03:46;;;;;;;;;27.00;25.33;;;;;3.62;100.00;101837.59;5042118;28;44764;-89
2022/01/06 08:06:13;;;;;;;;;29.00;23.00;;;;;3.65;100.00;101834.91;5025788;28;45070;-87
2022/01/06 08:08:39;;;;;;;;;25.00;18.00;;;;;3.65;100.00;101836.69;5021560;28;45335;-89
2022/01/06 08:11:04;;;;;;;;;19.00;18.00;;;;;3.64;100.00;101841.06;5022504;28;44811;-85
2022/01/06 08:13:30;;;;;;;;;19.00;14.67;;;;;3.67;100.00;101835.75;5025011;28;45397;-85
2022/01/06 08:15:56;;;;;;;;;26.33;20.33;;;;;3.66;100.00;101841.03;5045360;28;44753;-86
2022/01/06 08:18:21;;;;;;;;;27.33;23.33;;;;;3.69;100.00;101833.09;5030678;28;46130;-87
2022/01/06 08:20:47;;;;;;;;;23.33;17.67;;;;;3.70;100.00;101838.31;5046493;28;44826;-89
2022/01/06 08:23:12;;;;;;;;;22.33;20.00;;;;;3.76;100.00;101837.31;5030559;28;44731;-89
2022/01/06 08:25:40;;;;;;;;;19.33;14.00;;;;;3.79;100.00;101829.38;5047955;28;44988;-88
2022/01/06 08:28:07;;;;;;;;;32.00;22.00;;;;;3.81;100.00;101830.19;5030512;28;45381;-89
2022/01/06 08:30:33;;;;;;;;;23.00;20.00;;;;;3.83;100.00;101831.91;5027947;28;44803;-88
2022/01/06 08:33:04;;;;;;;;;27.00;14.33;;;;;3.85;100.00;101840.63;5056369;28;45258;-92
2022/01/06 08:35:31;;;;;;;;;20.67;19.33;;;;;3.86;100.00;101842.34;5052426;28;45292;-91
2022/01/06 08:37:57;;;;;;;;;26.67;24.00;;;;;3.92;100.00;101851.88;5042155;28;45068;-88
2022/01/06 08:40:22;;;;;;;;;24.00;23.33;;;;;3.95;100.00;101843.91;5011482;28;44902;-92
2022/01/06 08:42:48;;;;;;;;;26.33;22.00;;;;;3.96;100.00;101850.03;5027367;28;44675;-91
2022/01/06 08:45:18;;;;;;;;;29.00;24.00;;;;;4.01;100.00;101851.69;5007022;28;44991;-90
2022/01/06 08:47:45;;;;;;;;;30.33;25.00;;;;;4.01;100.00;101854.31;5022460;28;45254;-91
2022/01/06 08:50:12;;;;;;;;;25.33;24.67;;;;;4.04;100.00;101848.09;5007357;28;45311;-89
2022/01/06 08:52:38;;;;;;;;;16.67;14.33;;;;;4.02;100.00;101852.56;4999983;28;44861;-91
2022/01/06 08:55:06;;;;;;;;;27.00;22.00;;;;;3.99;100.00;101855.22;5003432;28;45271;-90
2022/01/06 08:57:32;;;;;;;;;26.33;25.00;;;;;4.00;100.00;101851.69;5000349;28;46281;-87
2022/01/06 08:59:57;;;;;;;;;28.00;26.00;;;;;4.02;100.00;101852.56;5028157;28;44680;-87
2022/01/06 09:02:23;;;;;;;;;30.67;23.67;;;;;3.99;100.00;101856.09;5027563;28;44686;-86
2022/01/06 09:04:49;;;;;;;;;28.00;25.67;;;;;4.03;100.00;101864.78;5035205;28;44803;-85
2022/01/06 09:07:14;;;;;;;;;26.00;22.33;;;;;4.07;100.00;101855.94;5034639;28;45320;-87
2022/01/06 09:09:40;;;;;;;;;34.67;26.67;;;;;4.17;100.00;101856.59;5032477;28;45313;-88
2022/01/06 09:12:16;;;;;;;;;30.33;27.33;;;;;4.24;100.00;101856.41;5021510;28;45313;-88
2022/01/06 09:14:42;;;;;;;;;30.67;24.00;;;;;4.23;100.00;101862.56;5018440;28;45322;-87
2022/01/06 09:17:07;;;;;;;;;24.00;21.33;;;;;4.29;100.00;101865.06;5018124;28;45433;-87
2022/01/06 09:19:33;;;;;;;;;32.67;25.33;;;;;4.35;100.00;101864.06;5001001;28;44855;-86
2022/01/06 09:21:58;;;;;;;;;28.00;26.00;;;;;4.44;100.00;101862.97;5001245;28;45335;-90
2022/01/06 09:24:23;;;;;;;;;29.00;20.33;;;;;4.52;100.00;101861.03;5000044;28;44848;-89
2022/01/06 09:26:49;;;;;;;;;30.33;26.00;;;;;4.59;100.00;101866.13;5022402;28;45625;-88
2022/01/06 09:29:15;;;;;;;;;28.67;23.67;;;;;4.71;100.00;101872.00;4997095;28;44760;-90
2022/01/06 09:31:41;;;;;;;;;37.00;27.33;;;;;4.78;100.00;101868.28;5039828;28;44804;-89
2022/01/06 09:34:08;;;;;;;;;32.00;25.33;;;;;4.80;100.00;101861.25;5038909;28;44760;-90
2022/01/06 09:36:35;;;;;;;;;30.67;26.33;;;;;4.87;100.00;101868.06;5040017;28;45082;-88
2022/01/06 09:39:03;;;;;;;;;26.00;25.00;;;;;4.88;100.00;101873.31;5055606;28;44817;-88
2022/01/06 09:41:30;;;;;;;;;27.00;23.33;;;;;4.98;100.00;101883.59;5048349;28;45417;-89
2022/01/06 09:43:57;;;;;;;;;31.00;24.67;;;;;5.05;100.00;101878.13;5033657;28;44767;-87
2022/01/06 09:46:24;;;;;;;;;26.00;24.33;;;;;5.08;100.00;101883.34;5015449;28;47106;-90
2022/01/06 09:48:50;;;;;;;;;28.67;24.00;;;;;5.18;100.00;101877.84;5029184;28;45397;-88
2022/01/06 09:51:16;;;;;;;;;34.67;31.33;;;;;5.14;100.00;101880.53;5034130;28;44798;-87
2022/01/06 09:53:42;;;;;;;;;32.33;29.00;;;;;5.16;100.00;101888.41;5020919;28;45326;-86
2022/01/06 09:56:08;;;;;;;;;52.67;37.00;;;;;5.21;100.00;101880.38;5038237;28;44996;-87
2022/01/06 09:58:34;;;;;;;;;32.33;23.33;;;;;5.23;100.00;101884.72;5037789;28;44789;-87
2022/01/06 10:00:59;;;;;;;;;32.00;25.67;;;;;5.24;100.00;101882.94;5038095;28;45026;-86
2022/01/06 10:03:37;;;;;;;;;34.00;27.33;;;;;5.25;100.00;101882.88;5036619;28;44816;-87
2022/01/06 10:06:13;;;;;;;;;28.00;24.00;;;;;5.29;100.00;101888.94;5036957;28;45325;-88
2022/01/06 10:08:40;;;;;;;;;34.67;25.00;;;;;5.36;100.00;101891.34;5027008;28;44783;-87
2022/01/06 10:11:19;;;;;;;;;28.00;22.33;;;;;5.47;100.00;101896.38;5044633;28;44743;-86
2022/01/06 10:13:55;;;;;;;;;26.33;23.33;;;;;5.60;100.00;101895.09;5044525;28;44829;-87
2022/01/06 10:16:22;;;;;;;;;16.33;12.67;;;;;5.66;100.00;101894.09;5045870;28;45387;-87
2022/01/06 10:18:54;;;;;;;;;27.00;24.00;;;;;5.65;100.00;101890.56;5029851;28;45331;-87
2022/01/06 10:21:19;;;;;;;;;23.33;21.67;;;;;5.74;100.00;101889.44;5049503;28;44757;-86
2022/01/06 10:23:57;;;;;;;;;17.67;15.67;;;;;5.83;100.00;101893.59;5048892;28;44980;-87
2022/01/06 10:26:22;;;;;;;;;25.67;23.00;;;;;5.91;100.00;101889.88;5050123;28;45355;-87
2022/01/06 10:28:52;;;;;;;;;20.33;19.00;;;;;6.00;100.00;101890.53;5051851;28;45406;-85
2022/01/06 10:31:23;;;;;;;;;20.67;20.33;;;;;5.99;100.00;101881.72;5033736;28;45273;-87
2022/01/06 10:33:48;;;;;;;;;26.67;21.67;;;;;6.06;100.00;101883.28;5033572;28;44944;-86
2022/01/06 10:36:13;;;;;;;;;20.00;17.33;;;;;6.08;100.00;101875.31;5052911;28;45001;-86
2022/01/06 10:38:40;;;;;;;;;13.00;11.33;;;;;6.08;100.00;101889.38;5029241;28;44765;-86
2022/01/06 10:41:11;;;;;;;;;25.33;22.67;;;;;6.10;100.00;101892.84;5044215;28;45384;-87
2022/01/06 10:43:36;;;;;;;;;18.33;15.67;;;;;6.09;100.00;101893.75;5044570;28;44810;-86
2022/01/06 10:46:03;;;;;;;;;26.50;18.75;;;;;6.10;100.00;101890.19;5046281;28;45020;-86
2022/01/06 10:48:28;;;;;;;;;21.67;19.67;;;;;6.12;100.00;101879.59;5032619;28;45464;-87
2022/01/06 10:51:01;;;;;;;;;19.33;14.67;;;;;6.02;100.00;101879.00;5051645;28;45036;-87
2022/01/06 10:53:28;;;;;;;;;14.67;14.67;;;;;6.04;100.00;101871.91;5026981;28;45558;-88
2022/01/06 10:55:53;;;;;;;;;23.50;20.25;;;;;6.03;100.00;101871.94;5045880;28;45423;-87
2022/01/06 10:58:25;;;;;;;;;26.00;22.33;;;;;6.00;100.00;101864.16;5025882;28;45191;-86
2022/01/06 11:01:00;;;;;;;;;15.75;13.75;;;;;6.01;100.00;101864.09;5044387;28;44731;-87
2022/01/06 11:03:29;;;;;;;;;16.75;15.00;;;;;5.99;100.00;101860.63;5044530;28;44758;-88
2022/01/06 11:05:57;;;;;;;;;20.33;17.67;;;;;5.99;100.00;101859.75;5027022;28;46957;-88
2022/01/06 11:08:27;;;;;;;;;25.00;19.33;;;;;6.02;100.00;101854.41;5049182;28;44803;-87
2022/01/06 11:13:30;;;;;;;;;21.33;20.67;;;;;5.95;100.00;101856.38;5049193;28;44857;-88
2022/01/06 11:15:57;;;;;;;;;22.00;19.67;;;;;6.02;100.00;101842.06;5045952;28;44981;-88